sensor_id;sensor_type;location;lat;lon;timestamp;temperature;humidity
19192;DHT22;9728;48.194;16.346;2023-06-10T00:02:50;25.00;56.50
19192;DHT22;9728;48.194;16.346;2023-06-10T00:07:53;25.00;56.60
19192;DHT22;9728;48.194;16.346;2023-06-10T00:12:57;25.00;56.60
19192;DHT22;9728;48.194;16.346;2023-06-10T00:18:02;25.00;56.60
19192;DHT22;9728;48.194;16.346;2023-06-10T00:23:05;25.00;56.80
19192;DHT22;9728;48.194;16.346;2023-06-10T00:28:10;25.00;56.80
19192;DHT22;9728;48.194;16.346;2023-06-10T00:33:15;24.90;56.80
19192;DHT22;9728;48.194;16.346;2023-06-10T00:38:18;24.90;56.80
19192;DHT22;9728;48.194;16.346;2023-06-10T00:43:22;24.90;57.50
19192;DHT22;9728;48.194;16.346;2023-06-10T00:48:27;24.90;56.90
19192;DHT22;9728;48.194;16.346;2023-06-10T00:53:32;24.90;57.10
19192;DHT22;9728;48.194;16.346;2023-06-10T00:58:36;24.90;57.10
19192;DHT22;9728;48.194;16.346;2023-06-10T01:03:41;24.80;57.00
19192;DHT22;9728;48.194;16.346;2023-06-10T01:08:52;24.80;57.20
19192;DHT22;9728;48.194;16.346;2023-06-10T01:13:58;24.80;57.40
19192;DHT22;9728;48.194;16.346;2023-06-10T01:19:04;24.80;57.30
19192;DHT22;9728;48.194;16.346;2023-06-10T01:24:09;24.80;57.40
19192;DHT22;9728;48.194;16.346;2023-06-10T01:29:17;24.80;57.50
19192;DHT22;9728;48.194;16.346;2023-06-10T01:34:23;24.80;57.60
19192;DHT22;9728;48.194;16.346;2023-06-10T01:39:29;24.80;57.70
19192;DHT22;9728;48.194;16.346;2023-06-10T01:44:34;24.80;57.80
19192;DHT22;9728;48.194;16.346;2023-06-10T01:49:38;24.80;57.80
19192;DHT22;9728;48.194;16.346;2023-06-10T01:54:43;24.80;57.80
19192;DHT22;9728;48.194;16.346;2023-06-10T01:59:46;24.80;57.90
19192;DHT22;9728;48.194;16.346;2023-06-10T02:04:50;24.80;57.90
19192;DHT22;9728;48.194;16.346;2023-06-10T02:09:56;24.80;57.90
19192;DHT22;9728;48.194;16.346;2023-06-10T02:15:00;24.80;58.10
19192;DHT22;9728;48.194;16.346;2023-06-10T02:20:04;24.80;58.10
19192;DHT22;9728;48.194;16.346;2023-06-10T02:25:10;24.80;58.10
19192;DHT22;9728;48.194;16.346;2023-06-10T02:30:14;24.90;58.30
19192;DHT22;9728;48.194;16.346;2023-06-10T02:35:17;24.80;58.90
19192;DHT22;9728;48.194;16.346;2023-06-10T02:40:23;24.80;58.20
19192;DHT22;9728;48.194;16.346;2023-06-10T02:45:26;24.90;58.40
19192;DHT22;9728;48.194;16.346;2023-06-10T02:50:32;24.80;58.30
19192;DHT22;9728;48.194;16.346;2023-06-10T02:55:51;24.80;58.40
19192;DHT22;9728;48.194;16.346;2023-06-10T03:00:55;24.80;58.50
19192;DHT22;9728;48.194;16.346;2023-06-10T03:06:03;24.80;58.50
19192;DHT22;9728;48.194;16.346;2023-06-10T03:11:08;24.80;58.40
19192;DHT22;9728;48.194;16.346;2023-06-10T03:16:13;24.90;58.60
19192;DHT22;9728;48.194;16.346;2023-06-10T03:21:17;24.90;58.50
19192;DHT22;9728;48.194;16.346;2023-06-10T03:26:22;24.80;58.50
19192;DHT22;9728;48.194;16.346;2023-06-10T03:31:26;24.90;58.70
19192;DHT22;9728;48.194;16.346;2023-06-10T03:36:30;24.90;58.60
19192;DHT22;9728;48.194;16.346;2023-06-10T03:41:34;24.90;58.60
19192;DHT22;9728;48.194;16.346;2023-06-10T03:46:39;24.90;58.70
19192;DHT22;9728;48.194;16.346;2023-06-10T03:51:43;24.90;58.70
19192;DHT22;9728;48.194;16.346;2023-06-10T03:56:48;24.90;58.70
19192;DHT22;9728;48.194;16.346;2023-06-10T04:01:52;25.00;58.80
19192;DHT22;9728;48.194;16.346;2023-06-10T04:06:56;24.90;58.70
19192;DHT22;9728;48.194;16.346;2023-06-10T04:12:02;25.00;58.80
19192;DHT22;9728;48.194;16.346;2023-06-10T04:17:08;24.90;59.00
19192;DHT22;9728;48.194;16.346;2023-06-10T04:22:13;24.90;58.90
19192;DHT22;9728;48.194;16.346;2023-06-10T04:27:18;25.00;58.90
19192;DHT22;9728;48.194;16.346;2023-06-10T04:32:22;25.00;59.00
19192;DHT22;9728;48.194;16.346;2023-06-10T04:37:25;25.00;58.90
19192;DHT22;9728;48.194;16.346;2023-06-10T04:42:33;25.00;59.00
19192;DHT22;9728;48.194;16.346;2023-06-10T04:47:37;25.00;59.10
19192;DHT22;9728;48.194;16.346;2023-06-10T04:52:41;25.10;59.10
19192;DHT22;9728;48.194;16.346;2023-06-10T04:57:48;25.10;59.10
19192;DHT22;9728;48.194;16.346;2023-06-10T05:02:53;25.20;59.20
19192;DHT22;9728;48.194;16.346;2023-06-10T05:07:58;25.20;59.10
19192;DHT22;9728;48.194;16.346;2023-06-10T05:13:03;25.20;59.10
19192;DHT22;9728;48.194;16.346;2023-06-10T05:18:06;25.30;59.20
19192;DHT22;9728;48.194;16.346;2023-06-10T05:23:10;25.30;59.10
19192;DHT22;9728;48.194;16.346;2023-06-10T05:28:15;25.30;59.10
19192;DHT22;9728;48.194;16.346;2023-06-10T05:33:18;25.30;59.10
19192;DHT22;9728;48.194;16.346;2023-06-10T05:38:22;25.40;59.10
19192;DHT22;9728;48.194;16.346;2023-06-10T05:43:27;25.40;59.10
19192;DHT22;9728;48.194;16.346;2023-06-10T05:48:30;25.40;59.10
19192;DHT22;9728;48.194;16.346;2023-06-10T05:53:35;25.50;59.10
19192;DHT22;9728;48.194;16.346;2023-06-10T05:58:40;25.50;59.10
19192;DHT22;9728;48.194;16.346;2023-06-10T06:03:43;25.50;59.20
19192;DHT22;9728;48.194;16.346;2023-06-10T06:08:47;25.60;59.10
19192;DHT22;9728;48.194;16.346;2023-06-10T06:13:51;25.60;59.10
19192;DHT22;9728;48.194;16.346;2023-06-10T06:18:55;25.60;59.10
19192;DHT22;9728;48.194;16.346;2023-06-10T06:23:59;25.60;59.00
19192;DHT22;9728;48.194;16.346;2023-06-10T06:29:04;25.60;59.60
19192;DHT22;9728;48.194;16.346;2023-06-10T06:34:07;25.60;58.90
19192;DHT22;9728;48.194;16.346;2023-06-10T06:39:11;25.60;58.90
19192;DHT22;9728;48.194;16.346;2023-06-10T06:44:18;25.60;58.90
19192;DHT22;9728;48.194;16.346;2023-06-10T06:49:27;25.60;58.90
19192;DHT22;9728;48.194;16.346;2023-06-10T06:54:30;25.60;58.90
19192;DHT22;9728;48.194;16.346;2023-06-10T06:59:36;25.60;58.90
19192;DHT22;9728;48.194;16.346;2023-06-10T07:04:39;25.60;58.90
19192;DHT22;9728;48.194;16.346;2023-06-10T07:09:43;25.60;58.90
19192;DHT22;9728;48.194;16.346;2023-06-10T07:14:47;25.70;58.90
19192;DHT22;9728;48.194;16.346;2023-06-10T07:19:51;25.70;59.00
19192;DHT22;9728;48.194;16.346;2023-06-10T07:24:55;25.70;58.90
19192;DHT22;9728;48.194;16.346;2023-06-10T07:29:59;25.70;58.90
19192;DHT22;9728;48.194;16.346;2023-06-10T07:35:06;25.70;58.90
19192;DHT22;9728;48.194;16.346;2023-06-10T07:40:11;25.70;59.00
19192;DHT22;9728;48.194;16.346;2023-06-10T07:45:15;25.70;59.00
19192;DHT22;9728;48.194;16.346;2023-06-10T07:50:19;25.70;59.00
19192;DHT22;9728;48.194;16.346;2023-06-10T07:55:22;25.80;59.00
19192;DHT22;9728;48.194;16.346;2023-06-10T08:00:29;25.80;58.90
19192;DHT22;9728;48.194;16.346;2023-06-10T08:05:32;25.90;59.00
19192;DHT22;9728;48.194;16.346;2023-06-10T08:10:36;25.80;58.80
19192;DHT22;9728;48.194;16.346;2023-06-10T08:15:40;25.90;58.90
19192;DHT22;9728;48.194;16.346;2023-06-10T08:20:44;26.00;58.90
19192;DHT22;9728;48.194;16.346;2023-06-10T08:25:47;26.00;58.80
19192;DHT22;9728;48.194;16.346;2023-06-10T08:30:52;26.00;58.70
19192;DHT22;9728;48.194;16.346;2023-06-10T08:35:58;26.00;58.70
19192;DHT22;9728;48.194;16.346;2023-06-10T08:41:03;26.00;58.60
19192;DHT22;9728;48.194;16.346;2023-06-10T08:46:09;26.00;58.60
19192;DHT22;9728;48.194;16.346;2023-06-10T08:51:14;26.00;58.70
19192;DHT22;9728;48.194;16.346;2023-06-10T08:56:19;26.00;58.60
19192;DHT22;9728;48.194;16.346;2023-06-10T09:01:25;26.00;58.70
19192;DHT22;9728;48.194;16.346;2023-06-10T09:06:29;26.10;58.80
19192;DHT22;9728;48.194;16.346;2023-06-10T09:11:34;26.10;58.70
19192;DHT22;9728;48.194;16.346;2023-06-10T09:16:39;26.20;58.70
19192;DHT22;9728;48.194;16.346;2023-06-10T09:21:43;26.30;58.70
19192;DHT22;9728;48.194;16.346;2023-06-10T09:26:47;26.30;59.30
19192;DHT22;9728;48.194;16.346;2023-06-10T09:31:52;26.40;58.70
19192;DHT22;9728;48.194;16.346;2023-06-10T09:36:56;26.40;58.60
19192;DHT22;9728;48.194;16.346;2023-06-10T09:41:59;26.40;58.50
19192;DHT22;9728;48.194;16.346;2023-06-10T09:47:05;26.50;58.60
19192;DHT22;9728;48.194;16.346;2023-06-10T09:52:08;26.60;58.70
19192;DHT22;9728;48.194;16.346;2023-06-10T09:57:12;26.60;58.60
19192;DHT22;9728;48.194;16.346;2023-06-10T10:02:18;26.80;58.60
19192;DHT22;9728;48.194;16.346;2023-06-10T10:07:21;26.80;58.60
19192;DHT22;9728;48.194;16.346;2023-06-10T10:12:26;26.90;58.60
19192;DHT22;9728;48.194;16.346;2023-06-10T10:17:32;27.10;58.70
19192;DHT22;9728;48.194;16.346;2023-06-10T10:22:38;27.20;58.40
19192;DHT22;9728;48.194;16.346;2023-06-10T10:27:44;27.30;58.40
19192;DHT22;9728;48.194;16.346;2023-06-10T10:32:57;27.40;58.10
19192;DHT22;9728;48.194;16.346;2023-06-10T10:38:02;27.50;57.80
19192;DHT22;9728;48.194;16.346;2023-06-10T10:43:06;27.60;57.80
19192;DHT22;9728;48.194;16.346;2023-06-10T10:48:12;27.70;57.90
19192;DHT22;9728;48.194;16.346;2023-06-10T10:53:20;27.90;57.80
19192;DHT22;9728;48.194;16.346;2023-06-10T10:58:24;28.10;57.90
19192;DHT22;9728;48.194;16.346;2023-06-10T11:03:29;28.30;58.00
19192;DHT22;9728;48.194;16.346;2023-06-10T11:08:46;28.50;57.50
19192;DHT22;9728;48.194;16.346;2023-06-10T11:14:07;28.70;56.60
19192;DHT22;9728;48.194;16.346;2023-06-10T11:19:31;28.90;56.60
19192;DHT22;9728;48.194;16.346;2023-06-10T11:24:35;29.10;55.90
19192;DHT22;9728;48.194;16.346;2023-06-10T11:29:39;29.30;56.30
19192;DHT22;9728;48.194;16.346;2023-06-10T11:34:52;29.40;55.90
19192;DHT22;9728;48.194;16.346;2023-06-10T11:39:56;29.50;55.10
19192;DHT22;9728;48.194;16.346;2023-06-10T11:45:00;29.50;55.40
19192;DHT22;9728;48.194;16.346;2023-06-10T11:50:06;29.60;55.10
19192;DHT22;9728;48.194;16.346;2023-06-10T11:55:11;29.60;54.80
19192;DHT22;9728;48.194;16.346;2023-06-10T12:00:16;29.60;54.70
19192;DHT22;9728;48.194;16.346;2023-06-10T12:05:21;29.60;54.90
19192;DHT22;9728;48.194;16.346;2023-06-10T12:10:24;29.70;55.00
19192;DHT22;9728;48.194;16.346;2023-06-10T12:15:29;29.80;55.00
19192;DHT22;9728;48.194;16.346;2023-06-10T12:20:36;29.90;54.80
19192;DHT22;9728;48.194;16.346;2023-06-10T12:25:42;30.00;54.70
19192;DHT22;9728;48.194;16.346;2023-06-10T12:31:06;30.10;54.70
19192;DHT22;9728;48.194;16.346;2023-06-10T12:36:16;30.20;53.70
19192;DHT22;9728;48.194;16.346;2023-06-10T12:41:20;30.30;53.40
19192;DHT22;9728;48.194;16.346;2023-06-10T12:46:23;30.40;53.50
19192;DHT22;9728;48.194;16.346;2023-06-10T12:51:28;30.40;53.10
19192;DHT22;9728;48.194;16.346;2023-06-10T12:56:31;30.40;53.30
19192;DHT22;9728;48.194;16.346;2023-06-10T13:01:35;30.40;53.80
19192;DHT22;9728;48.194;16.346;2023-06-10T13:06:40;30.30;53.80
19192;DHT22;9728;48.194;16.346;2023-06-10T13:11:43;30.20;54.00
19192;DHT22;9728;48.194;16.346;2023-06-10T13:16:47;30.00;54.20
19192;DHT22;9728;48.194;16.346;2023-06-10T13:21:52;29.90;54.40
19192;DHT22;9728;48.194;16.346;2023-06-10T13:26:55;29.80;54.70
19192;DHT22;9728;48.194;16.346;2023-06-10T13:31:59;29.60;54.80
19192;DHT22;9728;48.194;16.346;2023-06-10T13:37:04;29.50;54.90
19192;DHT22;9728;48.194;16.346;2023-06-10T13:42:08;29.40;55.00
19192;DHT22;9728;48.194;16.346;2023-06-10T13:47:11;29.30;55.10
19192;DHT22;9728;48.194;16.346;2023-06-10T13:52:16;29.20;55.30
19192;DHT22;9728;48.194;16.346;2023-06-10T13:57:20;29.20;55.40
19192;DHT22;9728;48.194;16.346;2023-06-10T14:02:23;29.10;55.60
19192;DHT22;9728;48.194;16.346;2023-06-10T14:07:28;29.00;55.40
19192;DHT22;9728;48.194;16.346;2023-06-10T14:12:31;29.00;55.50
19192;DHT22;9728;48.194;16.346;2023-06-10T14:17:35;29.00;55.60
19192;DHT22;9728;48.194;16.346;2023-06-10T14:22:39;28.90;55.50
19192;DHT22;9728;48.194;16.346;2023-06-10T14:27:43;28.90;55.60
19192;DHT22;9728;48.194;16.346;2023-06-10T14:32:48;28.90;55.60
19192;DHT22;9728;48.194;16.346;2023-06-10T14:37:53;28.90;55.70
19192;DHT22;9728;48.194;16.346;2023-06-10T14:42:56;28.80;55.70
19192;DHT22;9728;48.194;16.346;2023-06-10T14:48:00;28.80;55.60
19192;DHT22;9728;48.194;16.346;2023-06-10T14:53:05;28.80;55.70
19192;DHT22;9728;48.194;16.346;2023-06-10T14:58:08;28.80;55.70
19192;DHT22;9728;48.194;16.346;2023-06-10T15:03:12;28.80;55.70
19192;DHT22;9728;48.194;16.346;2023-06-10T15:08:16;28.90;55.80
19192;DHT22;9728;48.194;16.346;2023-06-10T15:13:20;28.90;55.80
19192;DHT22;9728;48.194;16.346;2023-06-10T15:18:23;28.90;55.70
19192;DHT22;9728;48.194;16.346;2023-06-10T15:23:28;29.00;55.80
19192;DHT22;9728;48.194;16.346;2023-06-10T15:28:31;29.00;55.70
19192;DHT22;9728;48.194;16.346;2023-06-10T15:33:34;29.00;55.70
19192;DHT22;9728;48.194;16.346;2023-06-10T15:38:40;29.10;55.70
19192;DHT22;9728;48.194;16.346;2023-06-10T15:43:43;29.10;55.70
19192;DHT22;9728;48.194;16.346;2023-06-10T15:48:46;29.00;55.20
19192;DHT22;9728;48.194;16.346;2023-06-10T15:53:51;28.90;54.90
19192;DHT22;9728;48.194;16.346;2023-06-10T15:58:54;28.70;54.80
19192;DHT22;9728;48.194;16.346;2023-06-10T16:03:58;28.50;55.00
19192;DHT22;9728;48.194;16.346;2023-06-10T16:09:03;28.40;55.20
19192;DHT22;9728;48.194;16.346;2023-06-10T16:14:06;28.20;55.50
19192;DHT22;9728;48.194;16.346;2023-06-10T16:19:09;28.10;55.70
19192;DHT22;9728;48.194;16.346;2023-06-10T16:24:14;27.90;55.90
19192;DHT22;9728;48.194;16.346;2023-06-10T16:29:18;27.80;56.20
19192;DHT22;9728;48.194;16.346;2023-06-10T16:34:22;27.70;56.30
19192;DHT22;9728;48.194;16.346;2023-06-10T16:39:27;27.50;56.40
19192;DHT22;9728;48.194;16.346;2023-06-10T16:44:30;27.40;56.70
19192;DHT22;9728;48.194;16.346;2023-06-10T16:49:33;27.30;56.90
19192;DHT22;9728;48.194;16.346;2023-06-10T16:54:39;27.20;57.10
19192;DHT22;9728;48.194;16.346;2023-06-10T16:59:43;27.10;57.40
19192;DHT22;9728;48.194;16.346;2023-06-10T17:04:46;27.10;57.50
19192;DHT22;9728;48.194;16.346;2023-06-10T17:09:51;27.00;57.60
19192;DHT22;9728;48.194;16.346;2023-06-10T17:14:54;26.90;57.90
19192;DHT22;9728;48.194;16.346;2023-06-10T17:19:57;26.90;58.00
19192;DHT22;9728;48.194;16.346;2023-06-10T17:25:03;26.80;58.00
19192;DHT22;9728;48.194;16.346;2023-06-10T17:30:07;26.70;58.30
19192;DHT22;9728;48.194;16.346;2023-06-10T17:35:11;26.70;58.40
19192;DHT22;9728;48.194;16.346;2023-06-10T17:40:16;26.60;58.60
19192;DHT22;9728;48.194;16.346;2023-06-10T17:45:20;26.60;58.80
19192;DHT22;9728;48.194;16.346;2023-06-10T17:50:23;26.60;58.80
19192;DHT22;9728;48.194;16.346;2023-06-10T17:55:28;26.60;58.90
19192;DHT22;9728;48.194;16.346;2023-06-10T18:00:32;26.60;59.20
19192;DHT22;9728;48.194;16.346;2023-06-10T18:05:35;26.50;59.10
19192;DHT22;9728;48.194;16.346;2023-06-10T18:10:40;26.50;59.20
19192;DHT22;9728;48.194;16.346;2023-06-10T18:15:43;26.50;59.40
19192;DHT22;9728;48.194;16.346;2023-06-10T18:20:47;26.50;59.30
19192;DHT22;9728;48.194;16.346;2023-06-10T18:25:51;26.40;59.40
19192;DHT22;9728;48.194;16.346;2023-06-10T18:30:55;26.40;59.60
19192;DHT22;9728;48.194;16.346;2023-06-10T18:35:59;26.40;59.50
19192;DHT22;9728;48.194;16.346;2023-06-10T18:41:03;26.40;59.60
19192;DHT22;9728;48.194;16.346;2023-06-10T18:46:07;26.40;59.80
19192;DHT22;9728;48.194;16.346;2023-06-10T18:51:11;26.40;59.70
19192;DHT22;9728;48.194;16.346;2023-06-10T18:56:16;26.40;59.80
19192;DHT22;9728;48.194;16.346;2023-06-10T19:01:19;26.40;59.90
19192;DHT22;9728;48.194;16.346;2023-06-10T19:06:22;26.40;59.80
19192;DHT22;9728;48.194;16.346;2023-06-10T19:11:27;26.40;59.90
19192;DHT22;9728;48.194;16.346;2023-06-10T19:16:32;26.30;60.10
19192;DHT22;9728;48.194;16.346;2023-06-10T19:21:36;26.30;59.90
19192;DHT22;9728;48.194;16.346;2023-06-10T19:26:41;26.30;60.00
19192;DHT22;9728;48.194;16.346;2023-06-10T19:31:44;26.30;60.20
19192;DHT22;9728;48.194;16.346;2023-06-10T19:36:47;26.30;60.10
19192;DHT22;9728;48.194;16.346;2023-06-10T19:41:52;26.30;60.10
19192;DHT22;9728;48.194;16.346;2023-06-10T19:46:56;26.30;60.30
19192;DHT22;9728;48.194;16.346;2023-06-10T19:51:59;26.20;61.00
19192;DHT22;9728;48.194;16.346;2023-06-10T19:57:10;26.20;60.00
19192;DHT22;9728;48.194;16.346;2023-06-10T20:02:13;26.20;60.10
19192;DHT22;9728;48.194;16.346;2023-06-10T20:07:16;26.20;60.10
19192;DHT22;9728;48.194;16.346;2023-06-10T20:12:21;26.10;60.00
19192;DHT22;9728;48.194;16.346;2023-06-10T20:17:26;26.10;60.10
19192;DHT22;9728;48.194;16.346;2023-06-10T20:22:29;26.10;60.00
19192;DHT22;9728;48.194;16.346;2023-06-10T20:27:34;26.10;60.10
19192;DHT22;9728;48.194;16.346;2023-06-10T20:32:37;26.10;60.20
19192;DHT22;9728;48.194;16.346;2023-06-10T20:37:41;26.10;60.20
19192;DHT22;9728;48.194;16.346;2023-06-10T20:42:46;26.10;60.20
19192;DHT22;9728;48.194;16.346;2023-06-10T20:47:49;26.10;60.40
19192;DHT22;9728;48.194;16.346;2023-06-10T20:52:52;26.00;60.30
19192;DHT22;9728;48.194;16.346;2023-06-10T20:57:58;26.10;60.40
19192;DHT22;9728;48.194;16.346;2023-06-10T21:03:01;26.00;60.50
19192;DHT22;9728;48.194;16.346;2023-06-10T21:08:05;26.00;60.50
19192;DHT22;9728;48.194;16.346;2023-06-10T21:13:11;26.00;60.60
19192;DHT22;9728;48.194;16.346;2023-06-10T21:18:14;26.00;60.70
19192;DHT22;9728;48.194;16.346;2023-06-10T21:23:17;26.00;60.60
19192;DHT22;9728;48.194;16.346;2023-06-10T21:28:23;26.00;60.60
19192;DHT22;9728;48.194;16.346;2023-06-10T21:33:26;26.00;60.80
19192;DHT22;9728;48.194;16.346;2023-06-10T21:38:30;26.00;60.60
19192;DHT22;9728;48.194;16.346;2023-06-10T21:43:35;26.00;60.70
19192;DHT22;9728;48.194;16.346;2023-06-10T21:48:38;26.00;60.80
19192;DHT22;9728;48.194;16.346;2023-06-10T21:53:41;26.00;60.70
19192;DHT22;9728;48.194;16.346;2023-06-10T21:58:46;26.00;61.60
19192;DHT22;9728;48.194;16.346;2023-06-10T22:03:50;26.00;60.80
19192;DHT22;9728;48.194;16.346;2023-06-10T22:08:54;26.00;60.70
19192;DHT22;9728;48.194;16.346;2023-06-10T22:13:58;25.90;60.70
19192;DHT22;9728;48.194;16.346;2023-06-10T22:19:02;25.90;60.80
19192;DHT22;9728;48.194;16.346;2023-06-10T22:24:07;25.90;60.70
19192;DHT22;9728;48.194;16.346;2023-06-10T22:29:12;25.90;60.70
19192;DHT22;9728;48.194;16.346;2023-06-10T22:34:19;25.90;60.80
19192;DHT22;9728;48.194;16.346;2023-06-10T22:39:23;25.90;60.80
19192;DHT22;9728;48.194;16.346;2023-06-10T22:44:28;25.90;60.80
19192;DHT22;9728;48.194;16.346;2023-06-10T22:49:31;25.90;60.90
19192;DHT22;9728;48.194;16.346;2023-06-10T22:54:35;25.90;60.80
19192;DHT22;9728;48.194;16.346;2023-06-10T22:59:40;25.90;60.80
19192;DHT22;9728;48.194;16.346;2023-06-10T23:04:44;25.80;60.70
19192;DHT22;9728;48.194;16.346;2023-06-10T23:09:47;25.80;60.70
19192;DHT22;9728;48.194;16.346;2023-06-10T23:14:53;25.80;60.70
19192;DHT22;9728;48.194;16.346;2023-06-10T23:19:56;25.80;60.70
19192;DHT22;9728;48.194;16.346;2023-06-10T23:25:00;25.80;60.60
19192;DHT22;9728;48.194;16.346;2023-06-10T23:30:09;25.80;60.50
19192;DHT22;9728;48.194;16.346;2023-06-10T23:35:13;25.80;60.50
19192;DHT22;9728;48.194;16.346;2023-06-10T23:40:21;25.80;60.40
19192;DHT22;9728;48.194;16.346;2023-06-10T23:45:26;25.70;60.20
19192;DHT22;9728;48.194;16.346;2023-06-10T23:50:29;25.70;60.20
19192;DHT22;9728;48.194;16.346;2023-06-10T23:55:37;25.70;60.10
